AirNav   Air Wisconsin pilot careers
 
 862 users online  

98G Sebewaing Airport
Sebewaing, Michigan, USA

GOING TO SEBEWAING?


FAA INFORMATION EFFECTIVE 08 NOVEMBER 2018

Location

FAA Identifier: 98G
Lat/Long: 43-43-46.2332N / 083-27-49.0208W
43-43.770553N / 083-27.817013W
43.7295092 / -83.4636169
(estimated)
Elevation: 584 ft. / 178 m (estimated)
Variation: 06W (1985)
Time zone: UTC -5 (UTC -4 during Daylight Saving Time)
Zip code: 48759

Airport Operations

Airport use: Open to the public
Activation date: 09/1948
Control tower: no
ARTCC: CLEVELAND CENTER
FSS: LANSING FLIGHT SERVICE STATION
NOTAMs facility: LAN (NOTAM-D service available)
Attendance: IREG
FOR FUEL, CALL 989-550-1145.
Wind indicator: lighted
Segmented circle: yes
Lights: DUSK-DAWN. ACTVT LIRL RY 18/36 - CTAF.

Airport Communications

CTAF/UNICOM: 122.8
WX AWOS-3 at CFS (16 nm S): 119.275 (989-672-4182)

Nearby radio navigation aids

VOR radial/distance  VOR name  Freq  Var
MBSr069/29.2SAGINAW VOR/DME112.9003W

Airport Services

Fuel available: 100LL
Parking: tiedowns
Airframe service: MINOR
BY PRIOR ARNGMT 989-553-1519.
Powerplant service: MINOR
BY PRIOR ARNGMT 989-553-1519.
Bottled oxygen: NONE
Bulk oxygen: NONE

Runway Information

Runway 18/36

Dimensions: 2178 x 50 ft. / 664 x 15 m
Surface: asphalt, in good condition
Weight bearing capacity: 
Single wheel: 10.0
Runway edge lights: low intensity
RUNWAY 18  RUNWAY 36
Latitude: 43-43.950000N43-43.593333N
Longitude: 083-27.853333W083-27.800000W
Elevation: 584.0 ft.584.0 ft.
Traffic pattern: leftleft
Runway heading: 180 magnetic, 174 true000 magnetic, 354 true
Displaced threshold: no326 ft.
Markings: basic, in good conditionbasic, in good condition
Obstructions: 83 ft. trees, 2000 ft. from runway, 20:1 slope to clear26 ft. rr, 278 ft. from runway, 133 ft. right of centerline, 3:1 slope to clear
APCH RATIO 20:1 AT DSPLCD THLD.

Runway 6/24

Dimensions: 2060 x 130 ft. / 628 x 40 m
Surface: turf, in good condition
Runway edge markings: 06/24 MKD WITH 3 FT CONES.
RUNWAY 6  RUNWAY 24
Latitude: 43-43.683333N43-43.855000N
Longitude: 083-28.006667W083-27.603333W
Elevation: 584.0 ft.584.0 ft.
Traffic pattern: leftleft
Obstructions: 10 ft. tree, 204 ft. from runway, 60 ft. left of centerline, 20:1 slope to clear26 ft. rr, 70 ft. from runway, 132 ft. left of centerline, 2:1 slope to clear
APCH RATIO 20:1 AT DSPLCD THLD, +60 FT TREES 1221 FT DST.

Airport Ownership and Management from official FAA records

Ownership: Publicly-owned
Owner: SEBEWAING TOWNSHIP
14 SHARPSTEEN ST
SEBEWAING, MI 48759
Phone 989-883-2120
Manager: DENNIS MONTEI
P O BOX 687, 14 SHARPSTEEN ST
SEBEWAING, MI 48759
Phone 989-550-1145
DOUGLAS ELSTON: ASST AMGR - PHONE 989-883-3787.

Airport Operational Statistics

Aircraft based on the field: 5
Single engine airplanes: 5
    
Aircraft operations: avg 38/week *
50% transient general aviation
50% local general aviation
* for 12-month period ending 31 December 2015

Additional Remarks

RY 06/24 NOT PLOWED WINTER MONTHS; MAY BE WET OR UNUSBL DURING SPRING THAW.
SEAGULLS & DEER ON & INVOF RYS.
FOR IFR CLEARANCE CTC CLEVELAND ARTCC (ZOB) 127.7/307.8 OR CALL ZOB 440-774-0386.

Instrument Procedures

There are no published instrument procedures at 98G.

Some nearby airports with instrument procedures:

KCFS - Tuscola Area Airport (16 nm S)
KBAX - Huron County Memorial Airport (21 nm E)
3CM - James Clements Municipal Airport (22 nm SW)
KHYX - Saginaw County H W Browne Airport (25 nm SW)
KMBS - MBS International Airport (29 nm SW)
 
Loc | Ops | Rwys | IFR | FBO | Links
Com | Nav | Svcs | Stats | Notes


 
Area around 98G (Sebewaing Airport)
 
Road maps at: MapQuest Bing Google
 
Aerial photo
WARNING: Photo may not be current or correct
Aerial photo of 98G (Sebewaing Airport)
Photo by Marge Beaver
Photography Plus
1571 Goody Rd.
Muskegon, MI 49441
Photo taken 16-Oct-2010
looking north.

Do you have a better or more recent aerial photo of Sebewaing Airport that you would like to share? If so, please send us your photo.

 
Sectional chart

 
Airport distance calculator
Flying to Sebewaing Airport? Find the distance to fly.

From to 98G

Sunrise and sunset
Times for 17-Nov-2018
 Local
(UTC-5)
 Zulu
(UTC)
Morning civil twilight07:0112:01
Sunrise07:3212:32
Sunset17:0622:06
Evening civil twilight17:3722:37

Current date and time
Zulu (UTC)  17-Nov-2018 22:01:52
Local (UTC-5)  17-Nov-2018 17:01:52
 
METAR
KCFS 
16nm S 
172155Z AUTO 29003KT 10SM BKN028 OVC036 00/M03 A3030 RMK AO2 T00041028
KBAX 
21nm E 
172156Z AUTO 30003KT 10SM OVC042 00/M04 A3030 RMK AO2 T00001037
KHYX 
25nm SW 
172155Z AUTO 35003KT 10SM SCT026 SCT035 OVC045 01/M03 A3030 RMK AO2
KMBS 
29nm SW 
172153Z 02006KT 10SM OVC048 01/M03 A3031 RMK AO2 SLP273 T00061033
TAF
KMBS 
29nm SW 
171720Z 1718/1818 30007KT P6SM -SN OVC025 FM171900 29007KT P6SM OVC028 FM172100 31006KT P6SM OVC035 FM180000 35003KT P6SM BKN035 OVC045
NOTAMs
Click for the latest NOTAMs
NOTAMs are issued by the DoD/FAA and will open in a separate window not controlled by AirNav.

 

 
 

FBO, Fuel Providers, and Aircraft Ground Support

  
 Business Name 
 
 Contact 
 
 Services / Description 
 
Fuel Prices
 
Comments
  
Sebewaing Airport 989-883-2120
no information available

If you are affiliated with Sebewaing Airport and would like to show here your services, contact info, web link, logo, and more, click here
100LL
FS $4.65 
 Updated 08-Nov-2018
 
   write
FS=Full service
Update Fuel Prices
 

Would you like to see your business listed on this page?

 If your business provides an interesting product or service to pilots, flight crews, aircraft, or users of the Sebewaing Airport, you should consider listing it here.  To start the listing process, click on the button below
 
Add a business
 

Other Pages about Sebewaing Airport

Page from the Michigan Airport Directory (PDF)
 
Update a link
 
Copyright © AirNav, LLC. All rights reserved. Privacy Policy  Contact